Time;durP1;ratioP1;P1;durP2;ratioP2;P2;SDS_P1;SDS_P2;PMS_P1;PMS_P2;Temp;Humidity;BMP_temperature;BMP_pressure;BME280_temperature;BME280_humidity;BME280_pressure;Samples;Min_cycle;Max_cycle;Signal;HPM_P1;HPM_P2
2022/10/04 00:02:46;;;;;;;11.70;4.50;;;13.60;77.90;;;;;;9180044;19;20018;-61
2022/10/04 00:05:55;;;;;;;19.35;5.35;;;13.60;77.80;;;;;;9182464;19;20018;-63
2022/10/04 00:09:01;;;;;;;15.25;5.47;;;13.60;78.00;;;;;;9180985;19;20029;-59
2022/10/04 00:12:06;;;;;;;12.93;6.03;;;13.50;77.90;;;;;;9181547;19;20046;-62
2022/10/04 00:15:21;;;;;;;12.57;5.20;;;13.60;78.00;;;;;;9180814;19;20017;-60
2022/10/04 00:18:31;;;;;;;9.75;5.38;;;13.50;78.70;;;;;;9182149;19;20086;-64
2022/10/04 00:22:07;;;;;;;13.10;5.28;;;13.60;78.10;;;;;;9180849;19;20019;-63
2022/10/04 00:25:22;;;;;;;11.98;5.65;;;13.50;78.30;;;;;;9182028;19;20040;-61
2022/10/04 00:28:32;;;;;;;12.18;5.20;;;13.50;78.10;;;;;;9181254;19;20024;-63
2022/10/04 00:32:11;;;;;;;17.67;6.05;;;13.50;78.20;;;;;;9180711;19;20317;-62
2022/10/04 00:35:44;;;;;;;13.70;5.20;;;13.50;78.30;;;;;;9180627;19;20082;-62
2022/10/04 00:39:04;;;;;;;10.40;5.40;;;13.50;78.20;;;;;;9181522;19;20015;-61
2022/10/04 00:42:32;;;;;;;10.45;5.35;;;13.50;78.20;;;;;;9180562;19;20317;-63
2022/10/04 00:45:40;;;;;;;14.45;5.47;;;13.50;78.30;;;;;;9181091;19;20021;-63
2022/10/04 00:48:47;;;;;;;18.52;6.55;;;13.50;78.20;;;;;;9180561;19;20078;-62
2022/10/04 00:51:54;;;;;;;19.33;5.82;;;13.50;78.20;;;;;;9180233;19;20029;-60
2022/10/04 00:55:04;;;;;;;15.30;6.10;;;13.50;78.30;;;;;;9178080;19;20905;-61
2022/10/04 00:58:18;;;;;;;16.50;6.30;;;13.50;78.30;;;;;;9175453;19;20014;-62
2022/10/04 01:01:26;;;;;;;14.68;5.95;;;13.60;78.50;;;;;;9178211;19;20047;-60
2022/10/04 01:04:40;;;;;;;14.10;6.22;;;13.50;78.40;;;;;;9179390;19;20021;-62
2022/10/04 01:07:47;;;;;;;14.77;6.25;;;13.50;78.50;;;;;;9180297;19;20113;-60
2022/10/04 01:10:56;;;;;;;15.32;6.38;;;13.50;78.40;;;;;;9179790;19;20350;-63
2022/10/04 01:14:06;;;;;;;11.07;5.88;;;13.50;78.50;;;;;;9177282;19;20508;-62
2022/10/04 01:17:10;;;;;;;20.48;6.05;;;13.50;78.50;;;;;;9175236;19;20026;-63
2022/10/04 01:20:33;;;;;;;13.85;5.93;;;13.50;78.50;;;;;;9179013;19;20492;-64
2022/10/04 01:23:47;;;;;;;19.67;8.25;;;13.50;78.70;;;;;;9179220;19;20027;-61
2022/10/04 01:26:51;;;;;;;13.90;6.88;;;13.60;78.80;;;;;;9177586;19;20835;-63
2022/10/04 01:29:54;;;;;;;;;;;13.50;78.60;;;;;;9180605;19;20006;-60
2022/10/04 01:32:58;;;;;;;20.80;7.57;;;13.50;78.60;;;;;;9178970;19;19948;-61
2022/10/04 01:36:02;;;;;;;20.10;6.75;;;13.50;78.50;;;;;;9177508;19;20016;-61
2022/10/04 01:39:07;;;;;;;;;;;13.50;78.60;;;;;;9176464;19;20340;-61
2022/10/04 01:42:13;;;;;;;13.02;6.68;;;13.50;78.60;;;;;;9178885;19;19914;-61
2022/10/04 01:45:24;;;;;;;16.52;5.97;;;13.50;78.60;;;;;;9179030;19;20010;-61
2022/10/04 01:48:33;;;;;;;20.90;7.55;;;13.50;78.70;;;;;;9177963;19;20476;-61
2022/10/04 01:51:39;;;;;;;11.65;5.93;;;13.50;78.70;;;;;;9176471;19;20023;-61
2022/10/04 01:54:49;;;;;;;58.13;9.48;;;13.50;78.80;;;;;;9178507;19;20018;-60
2022/10/04 01:58:01;;;;;;;17.88;6.75;;;13.50;78.90;;;;;;9172858;19;20579;-62
2022/10/04 02:01:15;;;;;;;21.80;7.15;;;13.50;78.90;;;;;;9177672;19;20448;-60
2022/10/04 02:04:22;;;;;;;15.27;6.05;;;13.50;78.90;;;;;;9178065;19;20007;-61
2022/10/04 02:07:29;;;;;;;15.88;7.03;;;13.50;78.90;;;;;;9177930;19;20036;-61
2022/10/04 02:10:38;;;;;;;18.80;7.00;;;13.50;79.00;;;;;;9174899;19;20090;-60
2022/10/04 02:13:50;;;;;;;23.47;7.03;;;13.50;79.00;;;;;;9176285;19;20014;-63
2022/10/04 02:16:54;;;;;;;14.88;7.15;;;13.50;79.00;;;;;;9173389;19;20014;-63
2022/10/04 02:20:00;;;;;;;17.15;7.10;;;13.50;79.00;;;;;;9177634;19;20480;-64
2022/10/04 02:23:07;;;;;;;13.88;6.72;;;13.50;79.10;;;;;;9177667;19;20025;-59
2022/10/04 02:26:13;;;;;;;21.35;6.90;;;13.50;79.10;;;;;;9184143;19;20023;-62
2022/10/04 02:29:17;;;;;;;14.32;6.43;;;13.50;79.10;;;;;;9184421;19;20022;-61
2022/10/04 02:35:45;;;;;;;16.92;7.00;;;13.50;79.10;;;;;;9182223;19;20089;-60
2022/10/04 02:38:55;;;;;;;11.65;6.53;;;13.50;79.20;;;;;;9185719;19;20017;-61
2022/10/04 02:42:04;;;;;;;19.35;6.55;;;13.40;79.10;;;;;;9183823;19;20038;-62
2022/10/04 02:45:18;;;;;;;16.98;6.72;;;13.40;79.20;;;;;;9185055;19;20310;-60
2022/10/04 02:48:33;;;;;;;18.38;6.18;;;13.40;79.30;;;;;;9183063;19;20014;-61
2022/10/04 02:51:41;;;;;;;19.85;8.27;;;13.40;79.30;;;;;;9184872;19;20078;-60
2022/10/04 02:54:51;;;;;;;14.25;6.65;;;13.40;79.30;;;;;;9184133;19;20014;-62
2022/10/04 02:57:58;;;;;;;17.52;7.35;;;13.40;79.30;;;;;;9180198;19;20054;-63
2022/10/04 03:01:02;;;;;;;12.68;6.43;;;13.30;79.30;;;;;;9183605;19;20068;-62
2022/10/04 03:04:06;;;;;;;17.25;7.15;;;13.30;79.30;;;;;;9184588;19;20481;-63
2022/10/04 03:07:10;;;;;;;16.25;6.40;;;13.30;79.30;;;;;;9183328;19;20092;-62
2022/10/04 03:10:14;;;;;;;18.95;7.30;;;13.30;79.30;;;;;;9181851;19;20018;-61
2022/10/04 03:13:21;;;;;;;12.43;6.70;;;13.20;79.30;;;;;;9184630;19;20468;-60
2022/10/04 03:16:26;;;;;;;15.80;6.75;;;13.20;79.30;;;;;;9181946;19;20128;-65
2022/10/04 03:19:32;;;;;;;21.55;7.78;;;13.20;79.30;;;;;;9182780;19;20002;-61
2022/10/04 03:22:35;;;;;;;14.52;7.32;;;13.20;79.30;;;;;;9181720;19;20043;-63
2022/10/04 03:25:49;;;;;;;18.95;7.43;;;13.20;79.30;;;;;;9183823;19;20086;-60
2022/10/04 03:28:55;;;;;;;16.70;7.67;;;13.10;79.40;;;;;;9184238;19;20035;-61
2022/10/04 03:32:01;;;;;;;13.48;6.28;;;13.10;79.40;;;;;;9180191;19;20352;-60
2022/10/04 03:35:08;;;;;;;18.42;6.97;;;13.10;79.40;;;;;;9182835;19;20043;-63
2022/10/04 03:38:13;;;;;;;14.13;6.80;;;13.00;79.30;;;;;;9182532;19;20021;-61
2022/10/04 03:41:17;;;;;;;14.10;6.97;;;13.00;79.40;;;;;;9183294;19;20011;-61
2022/10/04 03:44:24;;;;;;;18.92;7.35;;;13.00;79.40;;;;;;9182620;19;20015;-60
2022/10/04 03:47:31;;;;;;;15.25;6.65;;;13.00;79.50;;;;;;9182821;19;20623;-60
2022/10/04 03:50:39;;;;;;;17.83;7.85;;;12.90;79.50;;;;;;9182185;19;20018;-60
2022/10/04 03:53:46;;;;;;;14.05;7.18;;;12.90;79.50;;;;;;9182466;19;20267;-61
2022/10/04 03:56:51;;;;;;;14.40;7.35;;;12.80;79.50;;;;;;9175155;19;20086;-62
2022/10/04 03:59:58;;;;;;;14.40;6.78;;;12.80;79.60;;;;;;9182781;19;20078;-60
2022/10/04 04:03:04;;;;;;;13.10;7.15;;;12.80;79.70;;;;;;9181651;19;20375;-62
2022/10/04 04:06:15;;;;;;;17.70;6.80;;;12.80;79.70;;;;;;9182747;19;20074;-60
2022/10/04 04:09:23;;;;;;;13.07;7.03;;;12.80;79.80;;;;;;9179860;19;20507;-61
2022/10/04 04:12:35;;;;;;;17.50;7.18;;;12.70;79.70;;;;;;9180209;19;20014;-60
2022/10/04 04:15:42;;;;;;;22.05;6.45;;;12.70;79.70;;;;;;9180632;19;20014;-61
2022/10/04 04:18:49;;;;;;;16.45;6.90;;;12.70;79.70;;;;;;9182343;19;20018;-61
2022/10/04 04:21:56;;;;;;;11.07;6.45;;;12.70;79.80;;;;;;9182058;19;20355;-60
2022/10/04 04:25:03;;;;;;;10.02;6.30;;;12.60;79.70;;;;;;9181809;19;20508;-62
2022/10/04 04:28:21;;;;;;;23.60;7.15;;;12.70;79.90;;;;;;9179757;19;20026;-61
2022/10/04 04:31:32;;;;;;;14.18;7.18;;;12.60;79.90;;;;;;9180846;19;20010;-64
2022/10/04 04:34:51;;;;;;;16.90;5.75;;;12.60;79.90;;;;;;9181734;19;20373;-62
2022/10/04 04:38:07;;;;;;;17.17;6.15;;;12.50;80.00;;;;;;9177852;19;20375;-61
2022/10/04 04:41:12;;;;;;;16.25;6.72;;;12.50;80.00;;;;;;9181000;19;20103;-60
2022/10/04 04:44:19;;;;;;;12.15;6.22;;;12.50;79.90;;;;;;9181281;19;20515;-60
2022/10/04 04:47:35;;;;;;;14.30;6.90;;;12.50;79.90;;;;;;9178040;19;20367;-62
2022/10/04 04:50:41;;;;;;;18.83;6.80;;;12.50;80.00;;;;;;9180534;19;20186;-61
2022/10/04 04:53:46;;;;;;;12.65;6.60;;;12.50;79.90;;;;;;9179927;19;20011;-62
2022/10/04 04:56:51;;;;;;;18.48;7.18;;;12.40;79.90;;;;;;9172818;19;20006;-61
2022/10/04 04:59:58;;;;;;;16.90;6.93;;;12.40;79.90;;;;;;9178971;19;20020;-61
2022/10/04 05:03:07;;;;;;;15.63;6.38;;;12.40;79.90;;;;;;9179663;19;20449;-63
2022/10/04 05:06:26;;;;;;;11.30;6.65;;;12.30;79.90;;;;;;9180692;19;20007;-61
2022/10/04 05:09:32;;;;;;;17.73;6.88;;;12.30;80.00;;;;;;9177067;19;20063;-61
2022/10/04 05:12:36;;;;;;;23.27;6.57;;;12.30;79.90;;;;;;9179884;19;20097;-61
2022/10/04 05:15:41;;;;;;;17.60;6.03;;;12.30;80.00;;;;;;9175789;19;20077;-62
2022/10/04 05:18:48;;;;;;;14.80;6.38;;;12.20;79.90;;;;;;9180410;19;20021;-61
2022/10/04 05:21:54;;;;;;;12.00;6.05;;;12.20;80.00;;;;;;9178591;19;20022;-63
2022/10/04 05:25:01;;;;;;;13.85;6.53;;;12.20;80.00;;;;;;9178712;19;20105;-63
2022/10/04 05:28:06;;;;;;;10.93;6.40;;;12.10;80.00;;;;;;9178568;19;20041;-61
2022/10/04 05:31:31;;;;;;;12.13;6.45;;;12.10;80.00;;;;;;9179400;19;20010;-61
2022/10/04 05:34:41;;;;;;;16.38;6.30;;;12.00;80.00;;;;;;9179095;19;20420;-63
2022/10/04 05:37:56;;;;;;;13.95;6.43;;;12.00;80.00;;;;;;9174364;19;20105;-61
2022/10/04 05:41:07;;;;;;;13.45;6.45;;;12.00;80.00;;;;;;9177559;19;20010;-62
2022/10/04 05:44:29;;;;;;;13.20;6.28;;;12.00;80.10;;;;;;9177270;19;20464;-62
2022/10/04 05:47:33;;;;;;;14.07;6.22;;;11.90;80.10;;;;;;9177564;19;20048;-60
2022/10/04 05:50:41;;;;;;;15.50;6.68;;;11.80;80.00;;;;;;9178028;19;20007;-61
2022/10/04 05:53:45;;;;;;;12.13;6.05;;;11.80;80.10;;;;;;9177160;19;20098;-60
2022/10/04 05:56:59;;;;;;;;;;;11.80;80.10;;;;;;9172846;19;20011;-60
2022/10/04 06:00:17;;;;;;;15.95;6.15;;;11.80;80.10;;;;;;9182693;19;19974;-63
2022/10/04 06:03:32;;;;;;;13.98;5.90;;;11.70;80.00;;;;;;9185074;19;20467;-62
2022/10/04 06:06:42;;;;;;;17.73;6.22;;;11.70;80.10;;;;;;9185828;19;20015;-61
2022/10/04 06:10:01;;;;;;;18.13;7.15;;;11.70;80.20;;;;;;9183058;19;20117;-61
2022/10/04 06:13:12;;;;;;;13.68;5.93;;;11.70;80.90;;;;;;9174097;19;20085;-63
2022/10/04 06:16:24;;;;;;;9.90;5.50;;;11.60;80.20;;;;;;9178521;19;20467;-60
2022/10/04 06:19:48;;;;;;;19.38;6.07;;;11.60;80.30;;;;;;9177886;19;20033;-63
2022/10/04 06:23:00;;;;;;;17.30;6.70;;;11.60;80.40;;;;;;9174910;19;20113;-60
2022/10/04 06:26:10;;;;;;;17.92;6.40;;;11.60;80.50;;;;;;9177319;19;20089;-64
2022/10/04 06:29:19;;;;;;;16.23;6.75;;;11.50;80.40;;;;;;9178091;19;20543;-64
2022/10/04 06:32:51;;;;;;;12.43;6.03;;;11.60;80.60;;;;;;9185256;19;20018;-61
2022/10/04 06:36:28;;;;;;;18.23;7.47;;;11.60;81.40;;;;;;9183332;19;20085;-61
2022/10/04 06:40:02;;;;;;;19.60;7.57;;;11.60;80.70;;;;;;9184584;19;20022;-62
2022/10/04 06:43:23;;;;;;;11.68;7.32;;;11.60;80.80;;;;;;9184068;19;20014;-61
2022/10/04 06:46:32;;;;;;;16.90;7.43;;;11.60;80.80;;;;;;9184966;19;20047;-61
2022/10/04 06:49:46;;;;;;;16.33;6.13;;;11.60;80.80;;;;;;9184042;19;20351;-61
2022/10/04 06:52:59;;;;;;;13.32;6.25;;;11.60;80.80;;;;;;9184579;19;20684;-62
2022/10/04 06:56:34;;;;;;;20.05;6.97;;;11.60;80.80;;;;;;9181651;19;20483;-61
2022/10/04 06:59:59;;;;;;;19.85;8.55;;;11.60;80.80;;;;;;9184063;19;20017;-62
2022/10/04 07:03:06;;;;;;;15.43;7.72;;;11.60;81.00;;;;;;9184275;19;20007;-61
2022/10/04 07:06:11;;;;;;;20.08;7.53;;;11.70;80.90;;;;;;9181510;19;20027;-61
2022/10/04 07:09:21;;;;;;;14.07;6.32;;;11.70;80.90;;;;;;9181379;19;20019;-62
2022/10/04 07:12:28;;;;;;;19.42;7.53;;;11.60;81.00;;;;;;9181364;19;20014;-62
2022/10/04 07:15:37;;;;;;;20.35;8.10;;;11.60;81.00;;;;;;9181210;19;20032;-60
2022/10/04 07:18:49;;;;;;;16.02;6.43;;;11.70;81.10;;;;;;9182936;19;20017;-61
2022/10/04 07:22:02;;;;;;;15.02;6.70;;;11.70;81.10;;;;;;9184270;19;20014;-61
2022/10/04 07:25:15;;;;;;;16.35;7.25;;;11.70;81.10;;;;;;9181909;19;20053;-62
2022/10/04 07:31:43;;;;;;;13.52;6.40;;;11.80;81.20;;;;;;9183510;19;20082;-62
2022/10/04 07:34:53;;;;;;;17.23;7.30;;;11.80;81.20;;;;;;9180538;19;20050;-61
2022/10/04 07:38:07;;;;;;;17.75;7.10;;;11.80;81.30;;;;;;9174537;19;20420;-61
2022/10/04 07:41:15;;;;;;;17.48;6.93;;;11.80;81.30;;;;;;9182050;19;20108;-61
2022/10/04 07:44:35;;;;;;;22.35;8.30;;;11.90;81.40;;;;;;9182851;19;20109;-60
2022/10/04 07:47:40;;;;;;;18.75;8.32;;;11.90;81.60;;;;;;9182411;19;20014;-60
2022/10/04 07:50:51;;;;;;;19.40;8.32;;;12.00;81.60;;;;;;9181032;19;20017;-61
2022/10/04 07:53:59;;;;;;;19.02;7.35;;;12.10;81.80;;;;;;9182685;19;20052;-65
2022/10/04 07:57:15;;;;;;;16.52;7.40;;;12.20;81.80;;;;;;9176506;19;20019;-64
2022/10/04 08:00:24;;;;;;;14.52;7.38;;;12.40;82.00;;;;;;9182929;19;20017;-63
2022/10/04 08:03:42;;;;;;;21.77;7.45;;;12.50;81.90;;;;;;9181488;19;20536;-63
2022/10/04 08:06:58;;;;;;;18.92;8.05;;;12.60;82.00;;;;;;9178066;19;20097;-67
2022/10/04 08:10:07;;;;;;;19.98;7.57;;;12.80;82.00;;;;;;9172669;19;20472;-63
2022/10/04 08:13:21;;;;;;;18.30;7.47;;;12.90;81.90;;;;;;9175263;19;20086;-64
2022/10/04 08:16:35;;;;;;;29.17;9.40;;;13.10;81.90;;;;;;9180250;19;20015;-65
2022/10/04 08:19:52;;;;;;;25.30;8.23;;;13.20;81.70;;;;;;9180149;19;20102;-65
2022/10/04 08:23:08;;;;;;;22.05;6.97;;;13.40;81.80;;;;;;9179527;19;20014;-65
2022/10/04 08:26:34;;;;;;;15.02;6.55;;;13.50;81.70;;;;;;9177902;19;20178;-65
2022/10/04 08:29:53;;;;;;;24.33;6.95;;;13.70;81.60;;;;;;9180594;19;20022;-66
2022/10/04 08:33:09;;;;;;;16.13;6.20;;;13.80;81.40;;;;;;9178371;19;20014;-66
2022/10/04 08:36:25;;;;;;;14.98;5.93;;;13.90;81.20;;;;;;9176997;19;20028;-61
2022/10/04 08:39:50;;;;;;;13.82;7.20;;;14.00;81.10;;;;;;9179290;19;20444;-64
2022/10/04 08:43:20;;;;;;;15.45;5.97;;;14.10;81.00;;;;;;9178195;19;20022;-61
2022/10/04 08:46:46;;;;;;;13.55;5.72;;;14.30;81.10;;;;;;9176702;19;20551;-61
2022/10/04 08:50:15;;;;;;;18.00;5.63;;;14.40;81.00;;;;;;9174623;19;20022;-62
2022/10/04 08:53:57;;;;;;;14.25;5.68;;;14.50;80.90;;;;;;9178306;19;20010;-64
2022/10/04 08:57:14;;;;;;;12.50;5.50;;;14.60;80.80;;;;;;9173636;19;20010;-62
2022/10/04 09:00:24;;;;;;;15.65;5.75;;;14.70;80.60;;;;;;9179091;19;20010;-65
2022/10/04 09:04:01;;;;;;;11.88;5.30;;;14.80;80.50;;;;;;9180462;19;20018;-63
2022/10/04 09:07:27;;;;;;;12.13;5.05;;;15.00;80.50;;;;;;9176508;19;20037;-63
2022/10/04 09:10:46;;;;;;;11.75;4.78;;;15.10;80.50;;;;;;9173694;19;20032;-65
2022/10/04 09:14:13;;;;;;;15.40;6.47;;;15.20;80.40;;;;;;9179549;19;20418;-60
2022/10/04 09:17:22;;;;;;;15.52;6.22;;;15.40;80.40;;;;;;9175984;19;20019;-63
2022/10/04 09:20:44;;;;;;;17.52;5.25;;;15.40;80.20;;;;;;9179042;19;20018;-62
2022/10/04 09:24:18;;;;;;;13.55;4.97;;;15.60;80.10;;;;;;9176071;19;20355;-62
2022/10/04 09:27:41;;;;;;;12.65;5.22;;;15.80;80.10;;;;;;9178098;19;20082;-62
2022/10/04 09:31:23;;;;;;;13.57;5.25;;;15.90;79.90;;;;;;9175506;19;20021;-67
2022/10/04 09:34:40;;;;;;;11.55;4.75;;;16.00;79.80;;;;;;9183270;19;20010;-63
2022/10/04 09:37:57;;;;;;;14.85;5.88;;;16.20;79.70;;;;;;9193576;19;20026;-65
2022/10/04 09:41:22;;;;;;;12.25;5.05;;;16.40;79.50;;;;;;9195392;19;20038;-62
2022/10/04 09:44:54;;;;;;;10.02;4.93;;;16.50;79.40;;;;;;9196819;19;20077;-64
2022/10/04 09:48:16;;;;;;;8.55;4.40;;;16.70;79.20;;;;;;9189999;19;20480;-65
2022/10/04 09:51:41;;;;;;;16.30;5.40;;;16.80;79.10;;;;;;9188591;19;20025;-63
2022/10/04 09:55:10;;;;;;;8.93;4.55;;;17.00;79.00;;;;;;9196380;19;20018;-62
2022/10/04 09:58:47;;;;;;;10.43;4.80;;;17.20;78.90;;;;;;9186184;19;20017;-63
2022/10/04 10:02:27;;;;;;;15.93;5.65;;;17.30;78.60;;;;;;9195506;19;20031;-62
2022/10/04 10:05:49;;;;;;;11.60;4.97;;;17.50;78.40;;;;;;9189383;19;20549;-61
2022/10/04 10:09:10;;;;;;;12.23;5.22;;;17.70;78.80;;;;;;9185736;19;20018;-64
2022/10/04 10:15:58;;;;;;;8.95;4.10;;;18.00;77.90;;;;;;9184408;19;20026;-63
2022/10/04 10:19:22;;;;;;;16.80;4.72;;;18.20;77.80;;;;;;9185576;19;20021;-63
2022/10/04 10:23:01;;;;;;;12.60;4.18;;;18.40;77.60;;;;;;9180046;19;20014;-62
2022/10/04 10:26:39;;;;;;;11.37;3.77;;;18.60;77.20;;;;;;9186224;19;20062;-64
2022/10/04 10:30:07;;;;;;;12.15;4.15;;;18.70;77.00;;;;;;9183134;19;20018;-61
2022/10/04 10:33:47;;;;;;;14.27;3.63;;;18.90;76.90;;;;;;9182401;19;20118;-64
2022/10/04 10:37:07;;;;;;;8.48;3.90;;;19.10;76.60;;;;;;9175797;19;20825;-62
2022/10/04 10:40:32;;;;;;;18.15;4.10;;;19.20;76.30;;;;;;9177129;19;20155;-62
2022/10/04 10:44:02;;;;;;;8.05;3.30;;;19.40;75.90;;;;;;9179311;19;20014;-63
2022/10/04 10:47:36;;;;;;;10.18;4.22;;;19.50;75.80;;;;;;9171026;19;20094;-63
2022/10/04 10:51:02;;;;;;;9.95;3.20;;;19.60;75.20;;;;;;9171195;19;20044;-66
2022/10/04 10:54:39;;;;;;;15.50;3.60;;;19.70;75.10;;;;;;9176180;19;20475;-70
2022/10/04 10:58:09;;;;;;;19.27;5.00;;;19.80;74.70;;;;;;9168987;19;20474;-63
2022/10/04 11:01:47;;;;;;;10.90;3.17;;;19.90;74.40;;;;;;9180200;19;20446;-65
2022/10/04 11:04:58;;;;;;;11.45;2.95;;;20.00;74.20;;;;;;9180804;19;20427;-63
2022/10/04 11:08:22;;;;;;;8.73;3.63;;;20.00;74.30;;;;;;9181786;19;20015;-65
2022/10/04 11:11:51;;;;;;;9.93;3.45;;;20.10;73.70;;;;;;9184322;19;20024;-64
2022/10/04 11:15:24;;;;;;;10.07;3.28;;;20.20;73.60;;;;;;9183466;19;20116;-63
2022/10/04 11:18:59;;;;;;;16.63;4.30;;;20.30;73.80;;;;;;9179116;19;20375;-63
2022/10/04 11:22:16;;;;;;;;;;;20.40;73.10;;;;;;9182566;19;20019;-64
2022/10/04 11:25:49;;;;;;;8.20;3.15;;;20.40;73.60;;;;;;9180496;19;19936;-64
2022/10/04 11:29:00;;;;;;;14.90;4.00;;;20.60;73.20;;;;;;9180728;19;20037;-66
2022/10/04 11:32:36;;;;;;;12.80;4.25;;;20.70;73.20;;;;;;9183054;19;20071;-67
2022/10/04 11:36:11;;;;;;;12.80;4.55;;;20.70;72.60;;;;;;9179807;19;20007;-62
2022/10/04 11:39:38;;;;;;;15.50;4.22;;;20.80;72.40;;;;;;9181652;19;20082;-65
2022/10/04 11:43:05;;;;;;;8.57;3.50;;;20.90;72.20;;;;;;9179550;19;20015;-67
2022/10/04 11:46:25;;;;;;;14.57;4.25;;;21.00;72.00;;;;;;9182368;19;20521;-66
2022/10/04 11:49:55;;;;;;;10.68;4.18;;;21.00;71.60;;;;;;9180954;19;20014;-64
2022/10/04 11:53:20;;;;;;;13.35;3.75;;;21.10;71.40;;;;;;9181524;19;20023;-63
2022/10/04 11:56:35;;;;;;;8.15;3.63;;;21.10;71.40;;;;;;9173139;19;20099;-64
2022/10/04 11:59:50;;;;;;;8.70;4.13;;;21.10;71.30;;;;;;9179473;19;20372;-66
2022/10/04 12:03:31;;;;;;;8.73;4.50;;;21.10;71.00;;;;;;9178834;19;20025;-64
2022/10/04 12:06:57;;;;;;;11.15;4.38;;;21.10;70.70;;;;;;9179133;19;20010;-66
2022/10/04 12:10:10;;;;;;;15.13;5.22;;;21.10;70.70;;;;;;9178587;19;20135;-64
2022/10/04 12:13:38;;;;;;;14.13;4.38;;;21.10;70.90;;;;;;9178025;19;20018;-67
2022/10/04 12:17:09;;;;;;;14.10;4.50;;;21.10;70.50;;;;;;9180038;19;20039;-62
2022/10/04 12:20:37;;;;;;;13.85;4.80;;;21.10;70.30;;;;;;9180601;19;20014;-64
2022/10/04 12:24:17;;;;;;;14.18;4.40;;;21.10;70.20;;;;;;9176956;19;20455;-64
2022/10/04 12:27:43;;;;;;;9.82;3.88;;;21.10;70.10;;;;;;9176690;19;20022;-65
2022/10/04 12:31:15;;;;;;;15.07;4.15;;;21.00;70.00;;;;;;9181014;19;20018;-65
2022/10/04 12:34:27;;;;;;;10.00;4.75;;;21.10;69.90;;;;;;9179435;19;20010;-64
2022/10/04 12:37:38;;;;;;;9.77;4.38;;;21.10;70.00;;;;;;9177966;19;20563;-65
2022/10/04 12:40:48;;;;;;;11.70;4.65;;;21.00;69.80;;;;;;9174678;19;20015;-64
2022/10/04 12:44:01;;;;;;;12.25;4.85;;;21.00;69.80;;;;;;9172549;19;20031;-67
2022/10/04 12:47:26;;;;;;;16.30;4.65;;;20.90;69.60;;;;;;9178992;19;20011;-64
2022/10/04 12:50:53;;;;;;;11.77;4.68;;;20.90;69.60;;;;;;9178847;19;20007;-61
2022/10/04 12:54:04;;;;;;;13.20;4.28;;;20.80;69.40;;;;;;9176131;19;20350;-62
2022/10/04 12:57:28;;;;;;;8.77;4.22;;;20.70;69.50;;;;;;9174742;19;20014;-61
2022/10/04 13:00:36;;;;;;;12.07;5.00;;;20.70;69.50;;;;;;9179923;19;20022;-61
2022/10/04 13:04:01;;;;;;;12.40;5.03;;;20.60;69.50;;;;;;9179193;19;20494;-64
2022/10/04 13:07:26;;;;;;;12.50;4.38;;;20.50;69.40;;;;;;9178212;19;20036;-63
2022/10/04 13:10:45;;;;;;;9.88;4.22;;;20.40;69.40;;;;;;9164223;19;20027;-62
2022/10/04 13:14:09;;;;;;;10.18;4.22;;;20.30;69.60;;;;;;9172058;19;20074;-61
2022/10/04 13:17:26;;;;;;;11.40;4.45;;;20.20;69.50;;;;;;9169748;19;20086;-64
2022/10/04 13:20:49;;;;;;;9.20;5.13;;;20.10;69.50;;;;;;9173273;19;20018;-62
2022/10/04 13:24:04;;;;;;;13.70;5.45;;;20.00;69.60;;;;;;9173282;19;20019;-65
2022/10/04 13:27:15;;;;;;;17.30;5.25;;;20.00;69.40;;;;;;9166361;19;20028;-63
2022/10/04 13:30:26;;;;;;;13.30;5.50;;;19.90;69.40;;;;;;9167314;19;20807;-64
2022/10/04 13:33:37;;;;;;;14.20;4.88;;;19.70;69.40;;;;;;9167871;19;20414;-64
2022/10/04 13:36:54;;;;;;;10.32;4.45;;;19.70;69.40;;;;;;9170235;19;20090;-61
2022/10/04 13:40:29;;;;;;;11.30;4.68;;;19.60;69.30;;;;;;9168077;19;20055;-64
2022/10/04 13:43:59;;;;;;;8.57;4.60;;;19.50;69.20;;;;;;9172364;19;20018;-62
2022/10/04 13:47:16;;;;;;;9.90;4.50;;;19.50;69.30;;;;;;9170527;19;20015;-62
2022/10/04 13:50:32;;;;;;;8.68;5.05;;;19.40;69.50;;;;;;9167745;19;20098;-64
2022/10/04 13:57:19;;;;;;;12.30;5.10;;;19.40;69.40;;;;;;9165295;19;20353;-63
2022/10/04 14:00:45;;;;;;;16.73;5.47;;;19.40;69.30;;;;;;9175781;19;20578;-63
2022/10/04 14:04:00;;;;;;;14.05;5.00;;;19.40;69.20;;;;;;9168565;19;20460;-63
2022/10/04 14:07:42;;;;;;;14.43;6.07;;;19.40;69.40;;;;;;9171312;19;20074;-66
2022/10/04 14:11:27;;;;;;;8.52;4.35;;;19.40;69.20;;;;;;9177194;19;20015;-65
2022/10/04 14:15:14;;;;;;;12.65;4.43;;;19.50;69.20;;;;;;9177880;19;20088;-64
2022/10/04 14:18:46;;;;;;;12.73;3.72;;;19.50;69.00;;;;;;9175041;19;20366;-66
2022/10/04 14:22:32;;;;;;;10.10;3.92;;;19.50;69.00;;;;;;9181076;19;20018;-65
2022/10/04 14:26:01;;;;;;;6.78;4.28;;;19.50;68.80;;;;;;9186816;19;20025;-63
2022/10/04 14:29:34;;;;;;;10.52;4.18;;;19.60;68.80;;;;;;9183811;19;20018;-63
2022/10/04 14:33:12;;;;;;;13.73;4.63;;;19.60;68.70;;;;;;9176710;19;20033;-64
2022/10/04 14:36:39;;;;;;;12.50;4.15;;;19.60;68.70;;;;;;9173974;19;20106;-64
2022/10/04 14:40:09;;;;;;;12.15;3.80;;;19.60;68.60;;;;;;9176322;19;20467;-64
2022/10/04 14:43:58;;;;;;;11.18;3.83;;;19.50;68.50;;;;;;9170251;19;20097;-66
2022/10/04 14:47:21;;;;;;;8.35;3.95;;;19.50;68.40;;;;;;9175149;19;20048;-64
2022/10/04 14:50:33;;;;;;;14.02;4.38;;;19.50;68.50;;;;;;9173256;19;20614;-65
2022/10/04 14:53:49;;;;;;;12.73;3.70;;;19.50;68.50;;;;;;9173614;19;20078;-63
2022/10/04 14:57:02;;;;;;;11.77;3.90;;;19.50;68.60;;;;;;9168817;19;20032;-65
2022/10/04 15:00:20;;;;;;;11.43;3.75;;;19.50;68.40;;;;;;9173293;19;20011;-64
2022/10/04 15:03:39;;;;;;;14.20;3.67;;;19.40;68.20;;;;;;9170583;19;20022;-65
2022/10/04 15:06:49;;;;;;;9.40;3.88;;;19.40;68.20;;;;;;9167039;19;20014;-64
2022/10/04 15:09:58;;;;;;;8.55;4.38;;;19.40;68.20;;;;;;9169184;19;20529;-66
2022/10/04 15:13:08;;;;;;;6.88;3.78;;;19.30;68.10;;;;;;9166995;19;20019;-63
2022/10/04 15:16:22;;;;;;;11.23;4.28;;;19.30;68.10;;;;;;9174022;19;20489;-64
2022/10/04 15:19:32;;;;;;;11.93;4.43;;;19.30;68.00;;;;;;9173266;19;20774;-66
2022/10/04 15:22:43;;;;;;;12.90;6.63;;;19.20;68.10;;;;;;9177242;19;20022;-64
2022/10/04 15:25:48;;;;;;;8.75;3.63;;;19.20;68.00;;;;;;9172666;19;20721;-64
2022/10/04 15:29:04;;;;;;;12.93;3.90;;;19.10;68.00;;;;;;9173305;19;20031;-64
2022/10/04 15:32:19;;;;;;;9.77;3.78;;;19.10;67.90;;;;;;9172689;19;20108;-63
2022/10/04 15:35:34;;;;;;;8.57;4.22;;;19.00;67.90;;;;;;9175881;19;20033;-62
2022/10/04 15:38:52;;;;;;;10.70;3.45;;;19.00;67.90;;;;;;9172772;19;20013;-63
2022/10/04 15:42:06;;;;;;;13.15;3.53;;;18.90;67.90;;;;;;9173585;19;20022;-65
2022/10/04 15:45:33;;;;;;;8.90;3.83;;;18.90;68.00;;;;;;9170341;19;20014;-63
2022/10/04 15:48:57;;;;;;;9.45;3.42;;;18.80;68.40;;;;;;9167550;19;20025;-65
2022/10/04 15:52:14;;;;;;;8.15;3.97;;;18.70;67.80;;;;;;9167198;19;20102;-63
2022/10/04 15:55:22;;;;;;;6.82;3.70;;;18.70;68.00;;;;;;9165660;19;20018;-62
2022/10/04 15:58:46;;;;;;;10.10;3.58;;;18.60;68.00;;;;;;9170898;19;20537;-63
2022/10/04 16:02:11;;;;;;;7.88;3.10;;;18.60;68.00;;;;;;9180863;19;20030;-62
2022/10/04 16:05:24;;;;;;;9.75;3.28;;;18.50;68.00;;;;;;9181974;19;20011;-63
2022/10/04 16:08:47;;;;;;;9.95;3.63;;;18.50;68.10;;;;;;9182362;19;20014;-63
2022/10/04 16:12:04;;;;;;;9.40;3.45;;;18.50;68.10;;;;;;9182093;19;20583;-63
2022/10/04 16:15:19;;;;;;;9.48;3.60;;;18.40;68.20;;;;;;9182249;19;20510;-63
2022/10/04 16:18:37;;;;;;;7.07;2.97;;;18.40;68.20;;;;;;9180002;19;20011;-63
2022/10/04 16:21:50;;;;;;;8.77;3.30;;;18.30;68.20;;;;;;9181872;19;20105;-64
2022/10/04 16:24:56;;;;;;;7.43;3.40;;;18.20;68.20;;;;;;9182109;19;20471;-63
2022/10/04 16:28:09;;;;;;;9.20;3.20;;;18.20;68.30;;;;;;9182581;19;20567;-63
2022/10/04 16:31:25;;;;;;;22.65;3.50;;;18.20;68.30;;;;;;9181558;19;20909;-64
2022/10/04 16:34:51;;;;;;;6.30;3.30;;;18.10;68.30;;;;;;9180997;19;20021;-62
2022/10/04 16:37:59;;;;;;;9.13;3.60;;;18.10;68.40;;;;;;9179548;19;20081;-63
2022/10/04 16:41:11;;;;;;;13.63;3.40;;;18.00;68.50;;;;;;9179515;19;20107;-63
2022/10/04 16:44:34;;;;;;;13.32;3.65;;;18.00;68.50;;;;;;9180619;19;20459;-63
2022/10/04 16:47:40;;;;;;;10.38;3.53;;;17.90;68.40;;;;;;9179473;19;20410;-63
2022/10/04 16:51:08;;;;;;;8.52;4.03;;;17.90;68.50;;;;;;9178596;19;20057;-64
2022/10/04 16:54:45;;;;;;;9.10;4.05;;;17.80;68.50;;;;;;9179879;19;20014;-64
2022/10/04 16:58:18;;;;;;;14.15;2.92;;;17.70;68.50;;;;;;9173124;19;20078;-62
2022/10/04 17:01:50;;;;;;;11.65;3.33;;;17.70;68.60;;;;;;9177770;19;20014;-62
2022/10/04 17:05:36;;;;;;;7.03;3.40;;;17.60;68.70;;;;;;9179797;19;20030;-63
2022/10/04 17:08:48;;;;;;;8.15;3.38;;;17.50;68.70;;;;;;9179233;19;20471;-63
2022/10/04 17:12:09;;;;;;;7.80;3.25;;;17.50;68.80;;;;;;9180509;19;20089;-65